sensor_id;sensor_type;location;lat;lon;timestamp;pressure;altitude;pressure_sealevel;temperature;humidity
46836;BME280;32573;51.290;6.926;2023-12-07T00:02:06;100545.75;;;2.96;100.00
46836;BME280;32573;51.290;6.926;2023-12-07T00:04:34;100549.34;;;2.98;100.00
46836;BME280;32573;51.290;6.926;2023-12-07T00:07:02;100550.34;;;3.00;100.00
46836;BME280;32573;51.290;6.926;2023-12-07T00:09:31;100546.94;;;3.01;100.00
46836;BME280;32573;51.290;6.926;2023-12-07T00:11:59;100554.00;;;3.03;100.00
46836;BME280;32573;51.290;6.926;2023-12-07T00:14:27;100547.13;;;3.04;100.00
46836;BME280;32573;51.290;6.926;2023-12-07T00:16:56;100557.56;;;3.06;100.00
46836;BME280;32573;51.290;6.926;2023-12-07T00:19:25;100561.88;;;3.05;100.00
46836;BME280;32573;51.290;6.926;2023-12-07T00:21:54;100566.22;;;3.06;100.00
46836;BME280;32573;51.290;6.926;2023-12-07T00:24:22;100557.69;;;3.07;100.00
46836;BME280;32573;51.290;6.926;2023-12-07T00:26:50;100562.25;;;3.11;100.00
46836;BME280;32573;51.290;6.926;2023-12-07T00:29:19;100553.72;;;3.12;100.00
46836;BME280;32573;51.290;6.926;2023-12-07T00:31:47;100548.53;;;3.12;100.00
46836;BME280;32573;51.290;6.926;2023-12-07T00:34:15;100545.13;;;3.13;100.00
46836;BME280;32573;51.290;6.926;2023-12-07T00:36:47;100541.75;;;3.14;100.00
46836;BME280;32573;51.290;6.926;2023-12-07T00:39:15;100547.91;;;3.16;100.00
46836;BME280;32573;51.290;6.926;2023-12-07T00:41:45;100535.97;;;3.18;100.00
46836;BME280;32573;51.290;6.926;2023-12-07T00:44:14;100539.38;;;3.17;100.00
46836;BME280;32573;51.290;6.926;2023-12-07T00:46:42;100532.50;;;3.18;100.00
46836;BME280;32573;51.290;6.926;2023-12-07T00:49:11;100535.16;;;3.19;100.00
46836;BME280;32573;51.290;6.926;2023-12-07T00:51:39;100540.34;;;3.19;100.00
46836;BME280;32573;51.290;6.926;2023-12-07T00:54:09;100551.69;;;3.21;100.00
46836;BME280;32573;51.290;6.926;2023-12-07T00:56:37;100550.97;;;3.24;100.00
46836;BME280;32573;51.290;6.926;2023-12-07T00:59:05;100549.31;;;3.24;100.00
46836;BME280;32573;51.290;6.926;2023-12-07T01:01:33;100550.28;;;3.27;100.00
46836;BME280;32573;51.290;6.926;2023-12-07T01:04:02;100553.78;;;3.27;100.00
46836;BME280;32573;51.290;6.926;2023-12-07T01:06:30;100556.38;;;3.27;100.00
46836;BME280;32573;51.290;6.926;2023-12-07T01:08:59;100557.25;;;3.28;100.00
46836;BME280;32573;51.290;6.926;2023-12-07T01:11:28;100557.34;;;3.29;100.00
46836;BME280;32573;51.290;6.926;2023-12-07T01:13:56;100560.84;;;3.30;100.00
46836;BME280;32573;51.290;6.926;2023-12-07T01:16:25;100564.41;;;3.32;100.00
46836;BME280;32573;51.290;6.926;2023-12-07T01:18:53;100548.88;;;3.32;100.00
46836;BME280;32573;51.290;6.926;2023-12-07T01:21:22;100556.75;;;3.33;100.00
46836;BME280;32573;51.290;6.926;2023-12-07T01:23:50;100562.72;;;3.32;100.00
46836;BME280;32573;51.290;6.926;2023-12-07T01:26:34;100566.19;;;3.33;100.00
46836;BME280;32573;51.290;6.926;2023-12-07T01:29:02;100562.81;;;3.34;100.00
46836;BME280;32573;51.290;6.926;2023-12-07T01:31:30;100564.63;;;3.35;100.00
46836;BME280;32573;51.290;6.926;2023-12-07T01:33:59;100567.28;;;3.36;100.00
46836;BME280;32573;51.290;6.926;2023-12-07T01:36:27;100558.81;;;3.39;100.00
46836;BME280;32573;51.290;6.926;2023-12-07T01:38:54;100558.81;;;3.39;100.00
46836;BME280;32573;51.290;6.926;2023-12-07T01:41:23;100564.97;;;3.41;100.00
46836;BME280;32573;51.290;6.926;2023-12-07T01:43:52;100559.91;;;3.42;100.00
46836;BME280;32573;51.290;6.926;2023-12-07T01:46:21;100559.09;;;3.43;100.00
46836;BME280;32573;51.290;6.926;2023-12-07T01:48:49;100559.09;;;3.43;100.00
46836;BME280;32573;51.290;6.926;2023-12-07T01:51:18;100559.09;;;3.43;100.00
46836;BME280;32573;51.290;6.926;2023-12-07T01:53:47;100555.63;;;3.43;100.00
46836;BME280;32573;51.290;6.926;2023-12-07T01:56:16;100565.97;;;3.43;100.00
46836;BME280;32573;51.290;6.926;2023-12-07T01:58:45;100568.56;;;3.43;100.00
46836;BME280;32573;51.290;6.926;2023-12-07T02:01:14;100565.97;;;3.43;100.00
46836;BME280;32573;51.290;6.926;2023-12-07T02:03:43;100573.75;;;3.43;100.00
46836;BME280;32573;51.290;6.926;2023-12-07T02:06:11;100569.44;;;3.43;100.00
46836;BME280;32573;51.290;6.926;2023-12-07T02:08:40;100577.09;;;3.42;100.00
46836;BME280;32573;51.290;6.926;2023-12-07T02:11:09;100569.44;;;3.43;100.00
46836;BME280;32573;51.290;6.926;2023-12-07T02:13:38;100579.81;;;3.43;100.00
46836;BME280;32573;51.290;6.926;2023-12-07T02:16:13;100572.84;;;3.42;100.00
46836;BME280;32573;51.290;6.926;2023-12-07T02:18:50;100589.25;;;3.43;100.00
46836;BME280;32573;51.290;6.926;2023-12-07T02:21:24;100587.47;;;3.42;100.00
46836;BME280;32573;51.290;6.926;2023-12-07T02:23:54;100594.44;;;3.43;100.00
46836;BME280;32573;51.290;6.926;2023-12-07T02:26:27;100599.63;;;3.43;100.00
46836;BME280;32573;51.290;6.926;2023-12-07T02:28:58;100597.03;;;3.43;100.00
46836;BME280;32573;51.290;6.926;2023-12-07T02:31:26;100598.81;;;3.44;100.00
46836;BME280;32573;51.290;6.926;2023-12-07T02:33:55;100594.44;;;3.43;100.00
46836;BME280;32573;51.290;6.926;2023-12-07T02:36:24;100604.91;;;3.44;100.00
46836;BME280;32573;51.290;6.926;2023-12-07T02:38:56;100611.03;;;3.46;100.00
46836;BME280;32573;51.290;6.926;2023-12-07T02:41:25;100601.59;;;3.47;100.00
46836;BME280;32573;51.290;6.926;2023-12-07T02:43:56;100601.59;;;3.47;100.00
46836;BME280;32573;51.290;6.926;2023-12-07T02:46:25;100602.56;;;3.49;100.00
46836;BME280;32573;51.290;6.926;2023-12-07T02:48:54;100602.56;;;3.49;100.00
46836;BME280;32573;51.290;6.926;2023-12-07T02:51:22;100595.81;;;3.51;100.00
46836;BME280;32573;51.290;6.926;2023-12-07T02:53:50;100601.97;;;3.53;100.00
46836;BME280;32573;51.290;6.926;2023-12-07T02:56:19;100615.03;;;3.55;100.00
46836;BME280;32573;51.290;6.926;2023-12-07T02:58:47;100602.16;;;3.56;100.00
46836;BME280;32573;51.290;6.926;2023-12-07T03:01:16;100582.34;;;3.57;100.00
46836;BME280;32573;51.290;6.926;2023-12-07T03:03:45;100586.81;;;3.59;100.00
46836;BME280;32573;51.290;6.926;2023-12-07T03:06:14;100585.22;;;3.61;100.00
46836;BME280;32573;51.290;6.926;2023-12-07T03:08:44;100587.22;;;3.65;100.00
46836;BME280;32573;51.290;6.926;2023-12-07T03:11:13;100577.75;;;3.66;100.00
46836;BME280;32573;51.290;6.926;2023-12-07T03:13:41;100580.44;;;3.67;100.00
46836;BME280;32573;51.290;6.926;2023-12-07T03:16:10;100579.63;;;3.68;100.00
46836;BME280;32573;51.290;6.926;2023-12-07T03:18:39;100584.09;;;3.71;100.00
46836;BME280;32573;51.290;6.926;2023-12-07T03:21:08;100583.34;;;3.72;100.00
46836;BME280;32573;51.290;6.926;2023-12-07T03:23:36;100578.16;;;3.72;100.00
46836;BME280;32573;51.290;6.926;2023-12-07T03:26:04;100576.63;;;3.76;100.00
46836;BME280;32573;51.290;6.926;2023-12-07T03:28:33;100569.88;;;3.78;100.00
46836;BME280;32573;51.290;6.926;2023-12-07T03:31:01;100569.22;;;3.82;100.00
46836;BME280;32573;51.290;6.926;2023-12-07T03:33:29;100576.22;;;3.83;100.00
46836;BME280;32573;51.290;6.926;2023-12-07T03:35:59;100578.09;;;3.85;100.00
46836;BME280;32573;51.290;6.926;2023-12-07T03:38:27;100573.91;;;3.87;100.00
46836;BME280;32573;51.290;6.926;2023-12-07T03:40:55;100568.81;;;3.89;100.00
46836;BME280;32573;51.290;6.926;2023-12-07T03:43:24;100568.03;;;3.90;100.00
46836;BME280;32573;51.290;6.926;2023-12-07T03:45:52;100569.97;;;3.94;100.00
46836;BME280;32573;51.290;6.926;2023-12-07T03:48:21;100572.69;;;3.96;100.00
46836;BME280;32573;51.290;6.926;2023-12-07T03:50:49;100580.56;;;3.97;100.00
46836;BME280;32573;51.290;6.926;2023-12-07T03:53:19;100586.78;;;4.01;100.00
46836;BME280;32573;51.290;6.926;2023-12-07T03:55:47;100576.53;;;4.02;100.00
46836;BME280;32573;51.290;6.926;2023-12-07T03:58:15;100577.53;;;4.04;100.00
46836;BME280;32573;51.290;6.926;2023-12-07T04:00:44;100586.25;;;4.06;100.00
46836;BME280;32573;51.290;6.926;2023-12-07T04:03:12;100582.00;;;4.07;100.00
46836;BME280;32573;51.290;6.926;2023-12-07T04:05:41;100579.47;;;4.08;100.00
46836;BME280;32573;51.290;6.926;2023-12-07T04:08:10;100581.38;;;4.11;100.00
46836;BME280;32573;51.290;6.926;2023-12-07T04:10:40;100584.06;;;4.13;100.00
46836;BME280;32573;51.290;6.926;2023-12-07T04:13:09;100576.28;;;4.13;100.00
46836;BME280;32573;51.290;6.926;2023-12-07T04:15:37;100575.47;;;4.14;100.00
46836;BME280;32573;51.290;6.926;2023-12-07T04:18:05;100575.56;;;4.15;100.00
46836;BME280;32573;51.290;6.926;2023-12-07T04:20:34;100580.06;;;4.18;100.00
46836;BME280;32573;51.290;6.926;2023-12-07T04:23:02;100578.44;;;4.20;100.00
46836;BME280;32573;51.290;6.926;2023-12-07T04:25:30;100581.13;;;4.21;100.00
46836;BME280;32573;51.290;6.926;2023-12-07T04:28:00;100580.34;;;4.22;100.00
46836;BME280;32573;51.290;6.926;2023-12-07T04:30:29;100581.31;;;4.24;100.00
46836;BME280;32573;51.290;6.926;2023-12-07T04:32:57;100583.97;;;4.26;100.00
46836;BME280;32573;51.290;6.926;2023-12-07T04:35:25;100581.50;;;4.27;100.00
46836;BME280;32573;51.290;6.926;2023-12-07T04:37:55;100590.16;;;4.28;100.00
46836;BME280;32573;51.290;6.926;2023-12-07T04:40:24;100590.25;;;4.29;100.00
46836;BME280;32573;51.290;6.926;2023-12-07T04:42:53;100586.84;;;4.30;100.00
46836;BME280;32573;51.290;6.926;2023-12-07T04:45:23;100592.91;;;4.31;100.00
46836;BME280;32573;51.290;6.926;2023-12-07T04:47:51;100597.31;;;4.32;100.00
46836;BME280;32573;51.290;6.926;2023-12-07T04:50:20;100599.00;;;4.31;100.00
46836;BME280;32573;51.290;6.926;2023-12-07T04:52:48;100594.72;;;4.32;100.00
46836;BME280;32573;51.290;6.926;2023-12-07T04:55:16;100591.31;;;4.33;100.00
46836;BME280;32573;51.290;6.926;2023-12-07T04:57:45;100595.69;;;4.34;100.00
46836;BME280;32573;51.290;6.926;2023-12-07T05:00:14;100595.78;;;4.36;100.00
46836;BME280;32573;51.290;6.926;2023-12-07T05:02:44;100595.78;;;4.36;100.00
46836;BME280;32573;51.290;6.926;2023-12-07T05:05:12;100598.50;;;4.37;100.00
46836;BME280;32573;51.290;6.926;2023-12-07T05:07:41;100600.25;;;4.38;100.00
46836;BME280;32573;51.290;6.926;2023-12-07T05:10:10;100608.13;;;4.40;100.00
46836;BME280;32573;51.290;6.926;2023-12-07T05:12:38;100610.72;;;4.40;100.00
46836;BME280;32573;51.290;6.926;2023-12-07T05:15:08;100608.13;;;4.40;100.00
46836;BME280;32573;51.290;6.926;2023-12-07T05:17:36;100603.84;;;4.40;100.00
46836;BME280;32573;51.290;6.926;2023-12-07T05:20:07;100605.63;;;4.41;100.00
46836;BME280;32573;51.290;6.926;2023-12-07T05:22:36;100607.44;;;4.42;100.00
46836;BME280;32573;51.290;6.926;2023-12-07T05:25:05;100610.81;;;4.41;100.00
46836;BME280;32573;51.290;6.926;2023-12-07T05:27:33;100610.09;;;4.44;100.00
46836;BME280;32573;51.290;6.926;2023-12-07T05:30:02;100610.09;;;4.44;100.00
46836;BME280;32573;51.290;6.926;2023-12-07T05:32:30;100623.16;;;4.45;100.00
46836;BME280;32573;51.290;6.926;2023-12-07T05:34:59;100626.63;;;4.46;100.00
46836;BME280;32573;51.290;6.926;2023-12-07T05:37:28;100628.34;;;4.45;100.00
46836;BME280;32573;51.290;6.926;2023-12-07T05:39:57;100624.94;;;4.46;100.00
46836;BME280;32573;51.290;6.926;2023-12-07T05:42:25;100622.34;;;4.46;100.00
46836;BME280;32573;51.290;6.926;2023-12-07T05:44:54;100620.72;;;4.48;100.00
46836;BME280;32573;51.290;6.926;2023-12-07T05:47:22;100618.16;;;4.48;100.00
46836;BME280;32573;51.290;6.926;2023-12-07T05:49:51;100622.44;;;4.48;100.00
46836;BME280;32573;51.290;6.926;2023-12-07T05:52:19;100615.66;;;4.50;100.00
46836;BME280;32573;51.290;6.926;2023-12-07T05:54:49;100609.66;;;4.51;100.00
46836;BME280;32573;51.290;6.926;2023-12-07T05:57:17;100603.69;;;4.52;100.00
46836;BME280;32573;51.290;6.926;2023-12-07T05:59:45;100607.06;;;4.51;100.00
46836;BME280;32573;51.290;6.926;2023-12-07T06:02:14;100607.94;;;4.51;100.00
46836;BME280;32573;51.290;6.926;2023-12-07T06:04:42;100601.97;;;4.52;100.00
46836;BME280;32573;51.290;6.926;2023-12-07T06:07:11;100602.78;;;4.51;100.00
46836;BME280;32573;51.290;6.926;2023-12-07T06:09:40;100601.97;;;4.52;100.00
46836;BME280;32573;51.290;6.926;2023-12-07T06:12:10;100601.09;;;4.52;100.00
46836;BME280;32573;51.290;6.926;2023-12-07T06:14:38;100601.97;;;4.52;100.00
46836;BME280;32573;51.290;6.926;2023-12-07T06:17:06;100604.56;;;4.52;100.00
46836;BME280;32573;51.290;6.926;2023-12-07T06:19:35;100595.00;;;4.51;100.00
46836;BME280;32573;51.290;6.926;2023-12-07T06:22:03;100581.97;;;4.50;100.00
46836;BME280;32573;51.290;6.926;2023-12-07T06:24:33;100595.63;;;4.47;100.00
46836;BME280;32573;51.290;6.926;2023-12-07T06:27:03;100592.06;;;4.45;100.00
46836;BME280;32573;51.290;6.926;2023-12-07T06:29:32;100593.66;;;4.43;100.00
46836;BME280;32573;51.290;6.926;2023-12-07T06:32:00;100597.84;;;4.41;100.00
46836;BME280;32573;51.290;6.926;2023-12-07T06:34:30;100581.25;;;4.38;100.00
46836;BME280;32573;51.290;6.926;2023-12-07T06:36:59;100579.25;;;4.33;100.00
46836;BME280;32573;51.290;6.926;2023-12-07T06:39:27;100581.56;;;4.29;100.00
46836;BME280;32573;51.290;6.926;2023-12-07T06:41:56;100583.97;;;4.26;100.00
46836;BME280;32573;51.290;6.926;2023-12-07T06:44:24;100584.59;;;4.22;100.00
46836;BME280;32573;51.290;6.926;2023-12-07T06:46:54;100585.22;;;4.18;100.00
46836;BME280;32573;51.290;6.926;2023-12-07T06:49:22;100587.66;;;4.15;100.00
46836;BME280;32573;51.290;6.926;2023-12-07T06:52:01;100581.28;;;4.09;100.00
46836;BME280;32573;51.290;6.926;2023-12-07T06:54:29;100588.84;;;4.06;100.00
46836;BME280;32573;51.290;6.926;2023-12-07T06:56:57;100596.44;;;4.03;100.00
46836;BME280;32573;51.290;6.926;2023-12-07T06:59:26;100594.66;;;4.02;100.00
46836;BME280;32573;51.290;6.926;2023-12-07T07:01:55;100596.09;;;3.97;100.00
46836;BME280;32573;51.290;6.926;2023-12-07T07:04:24;100595.09;;;3.95;100.00
46836;BME280;32573;51.290;6.926;2023-12-07T07:06:52;100589.63;;;3.91;100.00
46836;BME280;32573;51.290;6.926;2023-12-07T07:09:20;100580.69;;;3.85;100.00
46836;BME280;32573;51.290;6.926;2023-12-07T07:11:49;100586.56;;;3.83;100.00
46836;BME280;32573;51.290;6.926;2023-12-07T07:14:17;100577.63;;;3.78;100.00
46836;BME280;32573;51.290;6.926;2023-12-07T07:16:46;100580.81;;;3.74;100.00
46836;BME280;32573;51.290;6.926;2023-12-07T07:19:15;100578.84;;;3.70;100.00
46836;BME280;32573;51.290;6.926;2023-12-07T07:21:45;100581.22;;;3.66;100.00
46836;BME280;32573;51.290;6.926;2023-12-07T07:24:14;100585.44;;;3.64;100.00
46836;BME280;32573;51.290;6.926;2023-12-07T07:26:43;100584.53;;;3.64;100.00
46836;BME280;32573;51.290;6.926;2023-12-07T07:29:11;100585.44;;;3.64;100.00
46836;BME280;32573;51.290;6.926;2023-12-07T07:31:39;100572.28;;;3.61;100.00
46836;BME280;32573;51.290;6.926;2023-12-07T07:34:08;100577.38;;;3.60;100.00
46836;BME280;32573;51.290;6.926;2023-12-07T07:36:37;100585.94;;;3.59;100.00
46836;BME280;32573;51.290;6.926;2023-12-07T07:39:06;100581.66;;;3.59;100.00
46836;BME280;32573;51.290;6.926;2023-12-07T07:41:35;100585.03;;;3.58;100.00
46836;BME280;32573;51.290;6.926;2023-12-07T07:44:03;100580.75;;;3.59;100.00
46836;BME280;32573;51.290;6.926;2023-12-07T07:46:32;100608.34;;;3.58;100.00
46836;BME280;32573;51.290;6.926;2023-12-07T07:49:00;100594.50;;;3.58;100.00
46836;BME280;32573;51.290;6.926;2023-12-07T07:51:31;100590.22;;;3.58;100.00
46836;BME280;32573;51.290;6.926;2023-12-07T07:54:00;100586.81;;;3.59;100.00
46836;BME280;32573;51.290;6.926;2023-12-07T07:56:29;100582.56;;;3.60;100.00
46836;BME280;32573;51.290;6.926;2023-12-07T07:58:57;100583.44;;;3.60;100.00
46836;BME280;32573;51.290;6.926;2023-12-07T08:01:27;100583.44;;;3.60;100.00
46836;BME280;32573;51.290;6.926;2023-12-07T08:03:55;100579.97;;;3.60;100.00
46836;BME280;32573;51.290;6.926;2023-12-07T08:06:24;100573.09;;;3.60;100.00
46836;BME280;32573;51.290;6.926;2023-12-07T08:08:52;100574.88;;;3.61;100.00
46836;BME280;32573;51.290;6.926;2023-12-07T08:11:22;100584.34;;;3.61;100.00
46836;BME280;32573;51.290;6.926;2023-12-07T08:13:50;100587.03;;;3.62;100.00
46836;BME280;32573;51.290;6.926;2023-12-07T08:16:19;100591.41;;;3.63;100.00
46836;BME280;32573;51.290;6.926;2023-12-07T08:18:47;100592.41;;;3.65;100.00
46836;BME280;32573;51.290;6.926;2023-12-07T08:21:20;100597.69;;;3.67;100.00
46836;BME280;32573;51.290;6.926;2023-12-07T08:23:54;100592.56;;;3.68;100.00
46836;BME280;32573;51.290;6.926;2023-12-07T08:26:24;100586.63;;;3.70;100.00
46836;BME280;32573;51.290;6.926;2023-12-07T08:28:54;100593.56;;;3.71;100.00
46836;BME280;32573;51.290;6.926;2023-12-07T08:31:23;100600.53;;;3.72;100.00
46836;BME280;32573;51.290;6.926;2023-12-07T08:33:52;100606.69;;;3.74;100.00
46836;BME280;32573;51.290;6.926;2023-12-07T08:36:20;100598.16;;;3.75;100.00
46836;BME280;32573;51.290;6.926;2023-12-07T08:38:49;100605.09;;;3.76;100.00
46836;BME280;32573;51.290;6.926;2023-12-07T08:41:17;100604.28;;;3.77;100.00
46836;BME280;32573;51.290;6.926;2023-12-07T08:43:47;100596.53;;;3.77;100.00
46836;BME280;32573;51.290;6.926;2023-12-07T08:46:16;100603.59;;;3.79;100.00
46836;BME280;32573;51.290;6.926;2023-12-07T08:48:45;100607.09;;;3.80;100.00
46836;BME280;32573;51.290;6.926;2023-12-07T08:51:13;100603.69;;;3.81;100.00
46836;BME280;32573;51.290;6.926;2023-12-07T08:53:41;100603.81;;;3.82;100.00
46836;BME280;32573;51.290;6.926;2023-12-07T08:56:10;100603.00;;;3.83;100.00
46836;BME280;32573;51.290;6.926;2023-12-07T08:58:40;100601.41;;;3.85;100.00
46836;BME280;32573;51.290;6.926;2023-12-07T09:01:09;100604.97;;;3.87;100.00
46836;BME280;32573;51.290;6.926;2023-12-07T09:03:56;100606.88;;;3.90;100.00
46836;BME280;32573;51.290;6.926;2023-12-07T09:06:24;100611.22;;;3.91;100.00
46836;BME280;32573;51.290;6.926;2023-12-07T09:08:53;100607.84;;;3.92;100.00
46836;BME280;32573;51.290;6.926;2023-12-07T09:11:22;100611.41;;;3.94;100.00
46836;BME280;32573;51.290;6.926;2023-12-07T09:13:50;100607.16;;;3.95;100.00
46836;BME280;32573;51.290;6.926;2023-12-07T09:16:20;100611.63;;;3.97;100.00
46836;BME280;32573;51.290;6.926;2023-12-07T09:18:49;100602.22;;;3.99;100.00
46836;BME280;32573;51.290;6.926;2023-12-07T09:21:17;100610.22;;;4.02;100.00
46836;BME280;32573;51.290;6.926;2023-12-07T09:23:45;100608.63;;;4.04;100.00
46836;BME280;32573;51.290;6.926;2023-12-07T09:26:14;100601.72;;;4.05;100.00
46836;BME280;32573;51.290;6.926;2023-12-07T09:28:42;100601.81;;;4.06;100.00
46836;BME280;32573;51.290;6.926;2023-12-07T09:31:10;100600.22;;;4.08;100.00
46836;BME280;32573;51.290;6.926;2023-12-07T09:33:40;100604.59;;;4.09;100.00
46836;BME280;32573;51.290;6.926;2023-12-07T09:36:09;100615.16;;;4.13;100.00
46836;BME280;32573;51.290;6.926;2023-12-07T09:38:38;100609.06;;;4.12;100.00
46836;BME280;32573;51.290;6.926;2023-12-07T09:41:07;100598.78;;;4.14;100.00
46836;BME280;32573;51.290;6.926;2023-12-07T09:43:35;100594.59;;;4.16;100.00
46836;BME280;32573;51.290;6.926;2023-12-07T09:46:04;100584.41;;;4.19;100.00
46836;BME280;32573;51.290;6.926;2023-12-07T09:48:34;100585.41;;;4.21;100.00
46836;BME280;32573;51.290;6.926;2023-12-07T09:51:06;100587.19;;;4.22;100.00
46836;BME280;32573;51.290;6.926;2023-12-07T09:53:35;100589.00;;;4.23;100.00
46836;BME280;32573;51.290;6.926;2023-12-07T09:56:07;100581.38;;;4.26;100.00
46836;BME280;32573;51.290;6.926;2023-12-07T09:58:36;100574.63;;;4.28;100.00
46836;BME280;32573;51.290;6.926;2023-12-07T10:01:08;100573.78;;;4.29;100.00
46836;BME280;32573;51.290;6.926;2023-12-07T10:03:37;100572.91;;;4.28;100.00
46836;BME280;32573;51.290;6.926;2023-12-07T10:06:07;100566.94;;;4.29;100.00
46836;BME280;32573;51.290;6.926;2023-12-07T10:08:36;100561.94;;;4.32;100.00
46836;BME280;32573;51.290;6.926;2023-12-07T10:11:06;100568.00;;;4.33;100.00
46836;BME280;32573;51.290;6.926;2023-12-07T10:13:36;100562.22;;;4.37;100.00
46836;BME280;32573;51.290;6.926;2023-12-07T10:16:09;100570.94;;;4.39;100.00
46836;BME280;32573;51.290;6.926;2023-12-07T10:18:38;100559.88;;;4.42;100.00
46836;BME280;32573;51.290;6.926;2023-12-07T10:21:12;100564.38;;;4.44;100.00
46836;BME280;32573;51.290;6.926;2023-12-07T10:23:42;100556.66;;;4.46;100.00
46836;BME280;32573;51.290;6.926;2023-12-07T10:26:16;100559.34;;;4.47;100.00
46836;BME280;32573;51.290;6.926;2023-12-07T10:28:48;100549.97;;;4.49;100.00
46836;BME280;32573;51.290;6.926;2023-12-07T10:31:20;100549.31;;;4.53;100.00
46836;BME280;32573;51.290;6.926;2023-12-07T10:33:49;100553.78;;;4.56;100.00
46836;BME280;32573;51.290;6.926;2023-12-07T10:36:19;100537.53;;;4.59;100.00
46836;BME280;32573;51.290;6.926;2023-12-07T10:38:48;100531.72;;;4.63;100.00
46836;BME280;32573;51.290;6.926;2023-12-07T10:41:18;100533.50;;;4.64;100.00
46836;BME280;32573;51.290;6.926;2023-12-07T10:43:49;100532.72;;;4.65;100.00
46836;BME280;32573;51.290;6.926;2023-12-07T10:46:20;100532.72;;;4.65;100.00
46836;BME280;32573;51.290;6.926;2023-12-07T10:48:53;100525.00;;;4.66;100.00
46836;BME280;32573;51.290;6.926;2023-12-07T10:51:30;100515.56;;;4.67;100.00
46836;BME280;32573;51.290;6.926;2023-12-07T10:54:02;100516.44;;;4.67;100.00
46836;BME280;32573;51.290;6.926;2023-12-07T10:56:36;100505.19;;;4.67;100.00
46836;BME280;32573;51.290;6.926;2023-12-07T10:59:09;100513.75;;;4.66;100.00
46836;BME280;32573;51.290;6.926;2023-12-07T11:01:53;100510.38;;;4.67;100.00
46836;BME280;32573;51.290;6.926;2023-12-07T11:04:23;100508.66;;;4.67;100.00
46836;BME280;32573;51.290;6.926;2023-12-07T11:06:56;100493.00;;;4.66;100.00
46836;BME280;32573;51.290;6.926;2023-12-07T11:09:32;100491.25;;;4.65;100.00
46836;BME280;32573;51.290;6.926;2023-12-07T11:12:07;100484.25;;;4.64;100.00
46836;BME280;32573;51.290;6.926;2023-12-07T11:14:39;100474.88;;;4.66;100.00
46836;BME280;32573;51.290;6.926;2023-12-07T11:17:08;100472.28;;;4.66;100.00
46836;BME280;32573;51.290;6.926;2023-12-07T11:19:48;100462.78;;;4.66;100.00
46836;BME280;32573;51.290;6.926;2023-12-07T11:22:19;100450.75;;;4.67;100.00
46836;BME280;32573;51.290;6.926;2023-12-07T11:24:54;100460.28;;;4.68;100.00
46836;BME280;32573;51.290;6.926;2023-12-07T11:27:26;100456.88;;;4.69;100.00
46836;BME280;32573;51.290;6.926;2023-12-07T11:29:58;100447.44;;;4.69;100.00
46836;BME280;32573;51.290;6.926;2023-12-07T11:32:28;100450.09;;;4.71;100.00
46836;BME280;32573;51.290;6.926;2023-12-07T11:35:02;100439.88;;;4.74;100.00
46836;BME280;32573;51.290;6.926;2023-12-07T11:38:01;100440.06;;;4.77;100.00
46836;BME280;32573;51.290;6.926;2023-12-07T11:40:31;100430.66;;;4.79;100.00
46836;BME280;32573;51.290;6.926;2023-12-07T11:43:00;100430.84;;;4.82;100.00
46836;BME280;32573;51.290;6.926;2023-12-07T11:45:39;100422.25;;;4.83;100.00
46836;BME280;32573;51.290;6.926;2023-12-07T11:48:11;100412.84;;;4.85;100.00
46836;BME280;32573;51.290;6.926;2023-12-07T11:50:57;100411.25;;;4.87;100.00
46836;BME280;32573;51.290;6.926;2023-12-07T11:53:28;100416.59;;;4.90;100.00
46836;BME280;32573;51.290;6.926;2023-12-07T11:55:58;100404.59;;;4.92;100.00
46836;BME280;32573;51.290;6.926;2023-12-07T11:58:27;100404.66;;;4.94;100.00
46836;BME280;32573;51.290;6.926;2023-12-07T12:00:56;100398.75;;;4.96;100.00
46836;BME280;32573;51.290;6.926;2023-12-07T12:03:25;100393.66;;;4.98;100.00
46836;BME280;32573;51.290;6.926;2023-12-07T12:05:54;100387.75;;;5.01;100.00
46836;BME280;32573;51.290;6.926;2023-12-07T12:08:23;100379.97;;;5.01;100.00
46836;BME280;32573;51.290;6.926;2023-12-07T12:10:54;100385.16;;;5.01;100.00
46836;BME280;32573;51.290;6.926;2023-12-07T12:13:28;100386.13;;;5.03;100.00
46836;BME280;32573;51.290;6.926;2023-12-07T12:15:57;100386.13;;;5.03;100.00
46836;BME280;32573;51.290;6.926;2023-12-07T12:18:30;100388.72;;;5.03;100.00
46836;BME280;32573;51.290;6.926;2023-12-07T12:21:00;100387.13;;;5.05;100.00
46836;BME280;32573;51.290;6.926;2023-12-07T12:23:28;100388.09;;;5.07;100.00
46836;BME280;32573;51.290;6.926;2023-12-07T12:25:58;100389.88;;;5.08;100.00
46836;BME280;32573;51.290;6.926;2023-12-07T12:28:27;100381.34;;;5.10;100.00
46836;BME280;32573;51.290;6.926;2023-12-07T12:30:56;100375.34;;;5.11;100.00
46836;BME280;32573;51.290;6.926;2023-12-07T12:33:24;100368.53;;;5.13;100.00
46836;BME280;32573;51.290;6.926;2023-12-07T12:36:02;100366.81;;;5.14;100.00
46836;BME280;32573;51.290;6.926;2023-12-07T12:38:31;100365.16;;;5.14;100.00
46836;BME280;32573;51.290;6.926;2023-12-07T12:41:10;100371.22;;;5.15;100.00
46836;BME280;32573;51.290;6.926;2023-12-07T12:43:40;100359.13;;;5.15;100.00
46836;BME280;32573;51.290;6.926;2023-12-07T12:46:09;100351.44;;;5.17;100.00
46836;BME280;32573;51.290;6.926;2023-12-07T12:48:52;100337.66;;;5.18;100.00
46836;BME280;32573;51.290;6.926;2023-12-07T12:51:20;100333.44;;;5.20;100.00
46836;BME280;32573;51.290;6.926;2023-12-07T12:53:51;100325.72;;;5.22;100.00
46836;BME280;32573;51.290;6.926;2023-12-07T12:56:22;100324.09;;;5.24;100.00
46836;BME280;32573;51.290;6.926;2023-12-07T12:58:52;100320.75;;;5.26;100.00
46836;BME280;32573;51.290;6.926;2023-12-07T13:01:23;100319.16;;;5.28;100.00
46836;BME280;32573;51.290;6.926;2023-12-07T13:03:51;100313.16;;;5.29;100.00